Pagrindinis puslapis
METAR-TAF:

METAR-TAF

Oro uostai :

Fort Stockton-Pecos County Airport

Fort Stockton, Teksasas, Jungtinės Amerikos Valstijos

platuma: 30-54-43N, ilguma: 102-55-00W, Aukštis: 917 m

Dabartinis oras

Ataskaita buvo paskelbta 33 minutes, ne 17:53 UTC
Vėjas 3 kt nuo kintamojo kryptimis
Temperatūra 28°C
Drėgmė 42%
Slėgis 1021 hPa
Matomumas: 14.5 km
Mažai debesys ne aukštis 5000 ft

METAR: KFST 031753Z AUTO VRB03KT 9SM FEW050 28/14 A3016 RMK AO2 SLP168 T02780139 10278 20189 58007

Laikas: 13:26 (18:26 UTC)

Prognozė

Ataskaita buvo paskelbta 1 valandą ir 6 minutes, ne 17:20 UTC
Prognozė galioja nuo 03 metu 18 UTC su 04 metu 18 UTC
Vėjas 8 kt iš Rytų
Matomumas: 10 km
Giedras dangus

TAF: KFST 031720Z 0318/0418 10008KT P6SM SKC

Orai ataskaitas ir orų prognozės (METAR, TAF).

turimą stotys yra geltonos ir raudonos taškus žemėlapyje.

Perkelti pele per norėdami pamatyti stoties vardą.

Tada spustelėkite, norėdami matyti oro stebėjimo ir prognozės.

Norėdami pakeisti žemėlapį: spustelėkite ant žalios mygtukų su juodo kryžiaus žemyn,; žalią mygtuką su brūkšneliu, jei norite nutolinti; arba žalių rodyklių gretimoms žemėlapius.


METAR-TAF: